Terrenceville, Canada
Current Conditions -  °F | °C
As of 3:00 PM on Sunday 21 Dec 2014 (Local Time) from CYQX Reporting Station
Broken Clouds Broken Clouds  
Wind Chill: 12°   Ceiling: 1100
Heat Index: 23°   Visibility: 20mi
Dew Point: 19°   Wind: 12mph
Humidity: 86%   Direction: 300°WNW
Pressure: 30.23"   Gusts: NA
Location:  47.68°N, 54.72°W
Report Text: CYQX 211800Z 30010KT 20SM BKN011 M05/M07 A3023 RMK SC7 SLP248
Loading
Personal Weather Stations






























Interactive Weather Map New forecast layout! Learn more

10-Day Weather Forecast

Advertisements
Track Severe Weather on mobile